Time;durP1;ratioP1;P1;durP2;ratioP2;P2;SDS_P1;SDS_P2;PMS_P1;PMS_P2;Temp;Humidity;BMP_temperature;BMP_pressure;BME280_temperature;BME280_humidity;BME280_pressure;Samples;Min_cycle;Max_cycle;Signal;HPM_P1;HPM_P2
2023/08/18 00:01:26;;;;;;;18.10;14.20;;;18.40;99.90;;;;;;5023870;28;20190;-64
2023/08/18 00:03:52;;;;;;;16.50;13.80;;;18.40;99.90;;;;;;5024074;28;21707;-64
2023/08/18 00:06:17;;;;;;;18.30;16.00;;;18.40;99.90;;;;;;5023286;28;20532;-64
2023/08/18 00:08:44;;;;;;;15.13;13.57;;;18.40;99.90;;;;;;5022884;28;20712;-64
2023/08/18 00:11:09;;;;;;;18.50;14.73;;;18.40;99.90;;;;;;5023883;28;20261;-64
2023/08/18 00:13:35;;;;;;;16.27;14.57;;;18.40;99.90;;;;;;5023243;28;20844;-65
2023/08/18 00:16:01;;;;;;;16.63;14.73;;;18.40;99.90;;;;;;5023861;28;20679;-64
2023/08/18 00:18:27;;;;;;;19.03;15.40;;;18.40;99.90;;;;;;5022637;28;20194;-63
2023/08/18 00:20:53;;;;;;;16.03;14.30;;;18.40;99.90;;;;;;5023676;28;20982;-63
2023/08/18 00:23:18;;;;;;;17.73;15.47;;;18.40;99.90;;;;;;5023765;28;20174;-64
2023/08/18 00:25:44;;;;;;;18.70;15.00;;;18.40;99.90;;;;;;5023129;28;20305;-64
2023/08/18 00:28:10;;;;;;;20.50;16.77;;;18.30;99.90;;;;;;5023180;28;20174;-63
2023/08/18 00:30:36;;;;;;;18.77;15.50;;;18.40;99.90;;;;;;5022610;28;20236;-64
2023/08/18 00:33:02;;;;;;;18.97;15.60;;;18.30;99.90;;;;;;5024140;28;20413;-64
2023/08/18 00:35:27;;;;;;;17.37;15.40;;;18.20;99.90;;;;;;5022459;28;20232;-63
2023/08/18 00:37:53;;;;;;;20.90;16.30;;;18.20;99.90;;;;;;5021712;28;20213;-64
2023/08/18 00:40:19;;;;;;;19.80;16.30;;;18.30;99.90;;;;;;5023338;28;20182;-64
2023/08/18 00:42:45;;;;;;;21.80;16.43;;;18.20;99.90;;;;;;5022451;28;20717;-63
2023/08/18 00:45:11;;;;;;;20.63;16.97;;;18.20;99.90;;;;;;5023341;28;20465;-64
2023/08/18 00:47:38;;;;;;;18.07;15.27;;;18.20;99.90;;;;;;5021839;28;21084;-63
2023/08/18 00:50:05;;;;;;;18.70;16.13;;;18.20;99.90;;;;;;5021963;28;20392;-63
2023/08/18 00:52:31;;;;;;;22.60;16.13;;;18.20;99.90;;;;;;5021731;28;20422;-64
2023/08/18 00:54:58;;;;;;;19.13;16.70;;;18.10;99.90;;;;;;5020229;28;20495;-64
2023/08/18 00:57:24;;;;;;;18.77;15.60;;;18.10;99.90;;;;;;5022456;28;20271;-63
2023/08/18 00:59:50;;;;;;;20.27;16.10;;;18.10;99.90;;;;;;5022179;28;20536;-64
2023/08/18 01:02:19;;;;;;;20.40;15.33;;;18.20;99.90;;;;;;5023175;28;20185;-63
2023/08/18 01:04:46;;;;;;;19.03;16.63;;;18.20;99.90;;;;;;5021566;28;20580;-64
2023/08/18 01:07:11;;;;;;;19.60;15.37;;;18.10;99.90;;;;;;5021925;28;20423;-63
2023/08/18 01:09:37;;;;;;;17.30;14.47;;;18.10;99.90;;;;;;5022814;28;20429;-63
2023/08/18 01:12:41;;;;;;;16.33;14.63;;;18.10;99.90;;;;;;5022382;28;20694;-64
2023/08/18 01:15:19;;;;;;;19.80;15.03;;;18.10;99.90;;;;;;5021891;28;20182;-63
2023/08/18 01:17:53;;;;;;;17.27;15.30;;;18.10;99.90;;;;;;5021802;28;20429;-64
2023/08/18 01:20:19;;;;;;;20.37;15.33;;;18.10;99.90;;;;;;5022189;28;20417;-64
2023/08/18 01:22:58;;;;;;;21.63;15.53;;;18.20;99.90;;;;;;5022242;28;20515;-63
2023/08/18 01:25:24;;;;;;;19.07;14.40;;;18.20;99.90;;;;;;5022360;28;20469;-63
2023/08/18 01:27:51;;;;;;;20.40;14.97;;;18.20;99.90;;;;;;5021084;28;20460;-63
2023/08/18 01:30:17;;;;;;;20.00;15.63;;;18.20;99.90;;;;;;5022270;28;20986;-65
2023/08/18 01:33:15;;;;;;;17.23;14.70;;;18.10;99.90;;;;;;5022115;28;20422;-63
2023/08/18 01:35:44;;;;;;;22.17;15.63;;;18.10;99.90;;;;;;5013532;28;20801;-63
2023/08/18 01:38:12;;;;;;;17.43;14.47;;;18.10;99.90;;;;;;5020706;28;20436;-63
2023/08/18 01:40:38;;;;;;;18.80;14.97;;;18.10;99.90;;;;;;5021846;28;20424;-63
2023/08/18 01:43:04;;;;;;;20.70;15.37;;;18.10;99.90;;;;;;5021747;28;21195;-63
2023/08/18 01:45:32;;;;;;;17.27;15.20;;;18.20;99.90;;;;;;5021420;28;20564;-64
2023/08/18 01:47:58;;;;;;;20.20;14.97;;;18.20;99.90;;;;;;5020014;28;20561;-64
2023/08/18 01:50:23;;;;;;;21.40;16.63;;;18.20;99.90;;;;;;5020973;28;20428;-64
2023/08/18 01:52:49;;;;;;;20.27;16.30;;;18.20;99.90;;;;;;5021618;28;20537;-64
2023/08/18 01:55:15;;;;;;;19.57;14.93;;;18.20;99.90;;;;;;5021460;28;20186;-65
2023/08/18 01:57:40;;;;;;;18.03;14.60;;;18.20;99.90;;;;;;5021036;28;20178;-63
2023/08/18 02:00:06;;;;;;;20.63;14.93;;;18.20;99.90;;;;;;5021563;28;20976;-63
2023/08/18 02:02:34;;;;;;;17.33;14.50;;;18.20;99.90;;;;;;5021938;28;20265;-64
2023/08/18 02:04:59;;;;;;;17.73;15.30;;;18.20;99.90;;;;;;5020886;28;20473;-64
2023/08/18 02:07:25;;;;;;;19.40;15.50;;;18.20;99.90;;;;;;5021277;28;20418;-64
2023/08/18 02:09:51;;;;;;;21.27;15.77;;;18.20;99.90;;;;;;5021427;28;20564;-63
2023/08/18 02:12:16;;;;;;;20.80;15.80;;;18.10;99.90;;;;;;5022215;28;20778;-64
2023/08/18 02:14:42;;;;;;;18.20;14.67;;;18.10;99.90;;;;;;5021036;28;20178;-64
2023/08/18 02:17:07;;;;;;;21.13;17.77;;;18.20;99.90;;;;;;5019752;28;20185;-65
2023/08/18 02:19:33;;;;;;;22.43;17.50;;;18.10;99.90;;;;;;5021654;28;20723;-64
2023/08/18 02:21:59;;;;;;;22.03;16.47;;;18.10;99.90;;;;;;5020612;28;20187;-64
2023/08/18 02:24:24;;;;;;;20.07;15.07;;;18.10;99.90;;;;;;5021507;28;20357;-64
2023/08/18 02:26:50;;;;;;;17.53;15.20;;;18.10;99.90;;;;;;5020641;28;20571;-65
2023/08/18 02:29:16;;;;;;;22.63;16.83;;;18.10;99.90;;;;;;5020738;28;20200;-64
2023/08/18 02:31:41;;;;;;;18.53;15.07;;;18.10;99.90;;;;;;5021287;28;20178;-64
2023/08/18 02:34:07;;;;;;;22.60;18.13;;;18.20;99.90;;;;;;5020501;28;20182;-63
2023/08/18 02:36:33;;;;;;;21.87;16.60;;;18.20;99.90;;;;;;5020289;28;20241;-64
2023/08/18 02:38:59;;;;;;;24.43;17.00;;;18.10;99.90;;;;;;5020616;28;20179;-63
2023/08/18 02:41:24;;;;;;;19.60;16.13;;;18.20;99.90;;;;;;5020743;28;20187;-64
2023/08/18 02:43:50;;;;;;;20.87;16.93;;;18.20;99.90;;;;;;5021555;28;20171;-64
2023/08/18 02:46:16;;;;;;;20.57;16.30;;;18.20;99.90;;;;;;5019712;28;20186;-65
2023/08/18 02:48:42;;;;;;;21.03;15.57;;;18.20;99.90;;;;;;5020630;28;20261;-64
2023/08/18 02:51:08;;;;;;;21.77;16.53;;;18.20;99.90;;;;;;5019152;28;20195;-64
2023/08/18 02:53:35;;;;;;;22.37;17.03;;;18.10;99.90;;;;;;5020908;28;20328;-63
2023/08/18 02:56:01;;;;;;;22.93;16.03;;;18.10;99.90;;;;;;5019984;28;21010;-63
2023/08/18 02:58:28;;;;;;;20.13;15.83;;;18.10;99.90;;;;;;5019855;28;20417;-64
2023/08/18 03:00:55;;;;;;;19.90;16.13;;;18.10;99.90;;;;;;5020733;28;20422;-64
2023/08/18 03:03:21;;;;;;;20.70;16.73;;;18.10;99.90;;;;;;5020109;28;20421;-64
2023/08/18 03:05:46;;;;;;;19.23;15.90;;;18.10;99.90;;;;;;5020763;28;20460;-63
2023/08/18 03:08:13;;;;;;;19.90;15.80;;;18.10;99.90;;;;;;5019649;28;20421;-62
2023/08/18 03:10:38;;;;;;;19.10;16.30;;;18.00;99.90;;;;;;5020621;28;20791;-64
2023/08/18 03:13:04;;;;;;;18.77;15.70;;;18.10;99.90;;;;;;5020322;28;20429;-63
2023/08/18 03:15:30;;;;;;;17.37;15.03;;;18.10;99.90;;;;;;5020263;28;20645;-64
2023/08/18 03:17:57;;;;;;;24.80;17.33;;;18.10;99.90;;;;;;5020409;28;20190;-64
2023/08/18 03:20:22;;;;;;;17.70;14.73;;;18.10;99.90;;;;;;5020027;28;20530;-64
2023/08/18 03:22:48;;;;;;;21.40;16.17;;;18.10;99.90;;;;;;5020619;28;20424;-64
2023/08/18 03:25:14;;;;;;;21.73;16.17;;;18.10;99.90;;;;;;5016931;28;20221;-65
2023/08/18 03:27:41;;;;;;;18.00;14.70;;;18.10;99.90;;;;;;5019465;28;20237;-64
2023/08/18 03:30:07;;;;;;;20.70;16.57;;;18.10;99.90;;;;;;5019962;28;20200;-64
2023/08/18 03:32:33;;;;;;;22.50;16.33;;;18.10;99.90;;;;;;5019610;28;20851;-64
2023/08/18 03:34:59;;;;;;;18.27;14.70;;;18.00;99.90;;;;;;5020481;28;20436;-64
2023/08/18 03:37:24;;;;;;;19.73;15.50;;;18.10;99.90;;;;;;5019197;28;20215;-64
2023/08/18 03:39:54;;;;;;;20.37;15.30;;;18.10;99.90;;;;;;5020451;28;20467;-64
2023/08/18 03:42:21;;;;;;;21.60;16.60;;;18.10;99.90;;;;;;5019407;28;20185;-65
2023/08/18 03:44:47;;;;;;;18.97;15.23;;;18.10;99.90;;;;;;5019968;28;20618;-64
2023/08/18 03:47:12;;;;;;;19.13;14.50;;;18.10;99.90;;;;;;5019360;28;20824;-64
2023/08/18 03:49:38;;;;;;;19.13;14.40;;;18.10;99.90;;;;;;5020731;28;20637;-65
2023/08/18 03:52:04;;;;;;;18.80;14.13;;;18.10;99.90;;;;;;5019588;28;20175;-64
2023/08/18 03:54:30;;;;;;;17.20;14.40;;;18.10;99.90;;;;;;5020216;28;20214;-65
2023/08/18 03:56:56;;;;;;;18.40;14.07;;;18.10;99.90;;;;;;5019459;28;20508;-64
2023/08/18 03:59:21;;;;;;;16.90;13.67;;;18.10;99.90;;;;;;5019928;28;20417;-65
2023/08/18 04:01:47;;;;;;;16.97;14.07;;;18.10;99.90;;;;;;5020298;28;20221;-64
2023/08/18 04:04:13;;;;;;;17.53;15.03;;;18.20;99.90;;;;;;5020184;28;20217;-62
2023/08/18 04:06:38;;;;;;;19.93;15.83;;;18.10;99.90;;;;;;5019217;28;20178;-64
2023/08/18 04:09:06;;;;;;;18.00;15.40;;;18.00;99.90;;;;;;5020415;28;20244;-63
2023/08/18 04:11:35;;;;;;;21.20;15.67;;;18.00;99.90;;;;;;5020192;28;20186;-65
2023/08/18 04:14:02;;;;;;;19.67;14.87;;;17.90;99.90;;;;;;5024217;28;20933;-63
2023/08/18 04:16:29;;;;;;;19.50;15.03;;;17.90;99.90;;;;;;5022371;28;20428;-64
2023/08/18 04:18:55;;;;;;;17.70;14.57;;;17.90;99.90;;;;;;5023553;28;20460;-65
2023/08/18 04:21:20;;;;;;;17.00;14.70;;;18.00;99.90;;;;;;5023186;28;21070;-64
2023/08/18 04:23:46;;;;;;;17.23;14.17;;;17.90;99.90;;;;;;5023685;28;20186;-64
2023/08/18 04:26:12;;;;;;;16.30;13.60;;;17.90;99.90;;;;;;5020977;28;20210;-63
2023/08/18 04:28:38;;;;;;;16.50;12.60;;;17.90;99.90;;;;;;5021709;28;20236;-65
2023/08/18 04:31:04;;;;;;;19.70;15.17;;;17.90;99.90;;;;;;5023105;28;20850;-64
2023/08/18 04:33:29;;;;;;;15.30;13.17;;;17.90;99.90;;;;;;5021702;28;20437;-65
2023/08/18 04:35:55;;;;;;;21.90;15.53;;;17.90;99.90;;;;;;5023541;28;20182;-64
2023/08/18 04:38:21;;;;;;;16.17;13.30;;;17.90;99.90;;;;;;5021038;28;20644;-64
2023/08/18 04:41:00;;;;;;;22.27;15.03;;;17.90;99.90;;;;;;5022637;28;20194;-64
2023/08/18 04:43:30;;;;;;;16.33;13.77;;;17.90;99.90;;;;;;5016141;28;20512;-64
2023/08/18 04:45:57;;;;;;;15.10;13.10;;;17.90;99.90;;;;;;5022674;28;20460;-65
2023/08/18 04:48:23;;;;;;;17.13;14.40;;;17.90;99.90;;;;;;5026460;28;20441;-64
2023/08/18 04:50:49;;;;;;;16.40;13.43;;;17.90;99.90;;;;;;5028742;28;20500;-64
2023/08/18 04:53:16;;;;;;;19.60;15.10;;;17.90;99.90;;;;;;5027611;28;21209;-64
2023/08/18 04:55:42;;;;;;;16.07;12.90;;;17.90;99.90;;;;;;5021877;28;20432;-65
2023/08/18 04:58:12;;;;;;;17.50;14.37;;;17.90;99.90;;;;;;5021981;28;20443;-65
2023/08/18 05:00:46;;;;;;;18.00;14.30;;;17.80;99.90;;;;;;5021307;28;20464;-64
2023/08/18 05:03:12;;;;;;;15.77;13.07;;;17.80;99.90;;;;;;5019255;28;20443;-64
2023/08/18 05:06:08;;;;;;;19.53;15.50;;;17.80;99.90;;;;;;5020125;28;21010;-63
2023/08/18 05:08:36;;;;;;;19.77;15.00;;;17.80;99.90;;;;;;5020542;28;20192;-65
2023/08/18 05:11:09;;;;;;;17.33;14.13;;;17.80;99.90;;;;;;5021978;28;20443;-63
2023/08/18 05:13:36;;;;;;;17.57;14.57;;;17.70;99.90;;;;;;5021945;28;21205;-65
2023/08/18 05:16:05;;;;;;;17.20;13.77;;;17.70;99.90;;;;;;5021820;28;20839;-66
2023/08/18 05:18:32;;;;;;;18.83;15.40;;;17.70;99.90;;;;;;5019332;28;21293;-65
2023/08/18 05:21:01;;;;;;;16.83;13.73;;;17.70;99.90;;;;;;5021910;28;20798;-64
2023/08/18 05:23:28;;;;;;;15.80;12.70;;;17.80;99.90;;;;;;5021775;28;20487;-64
2023/08/18 05:25:54;;;;;;;14.77;13.20;;;17.80;99.90;;;;;;5021071;28;20461;-64
2023/08/18 05:28:24;;;;;;;17.43;13.60;;;17.80;99.90;;;;;;5021813;28;20422;-66
2023/08/18 05:30:51;;;;;;;20.40;13.53;;;17.90;99.90;;;;;;5020342;28;20445;-65
2023/08/18 05:33:17;;;;;;;16.37;13.53;;;17.80;99.90;;;;;;5021984;28;21021;-65
2023/08/18 05:35:43;;;;;;;14.43;11.80;;;17.80;99.90;;;;;;5021734;28;20468;-65
2023/08/18 05:38:12;;;;;;;13.50;12.10;;;17.80;99.90;;;;;;5016021;28;20441;-65
2023/08/18 05:40:49;;;;;;;14.50;12.50;;;17.90;99.90;;;;;;5019317;28;20867;-64
2023/08/18 05:43:16;;;;;;;16.73;12.27;;;17.90;99.90;;;;;;5020740;28;20806;-64
2023/08/18 05:45:46;;;;;;;15.47;11.60;;;17.90;99.90;;;;;;5020609;28;20465;-64
2023/08/18 05:48:13;;;;;;;13.60;11.87;;;17.90;99.90;;;;;;5021441;28;20432;-64
2023/08/18 05:50:39;;;;;;;15.17;12.60;;;17.90;99.90;;;;;;5020265;28;20437;-64
2023/08/18 05:53:05;;;;;;;13.87;12.13;;;17.90;99.90;;;;;;5020343;28;20421;-65
2023/08/18 05:55:31;;;;;;;13.70;12.20;;;17.90;99.90;;;;;;5020842;28;20424;-64
2023/08/18 05:58:02;;;;;;;14.57;11.33;;;18.00;99.90;;;;;;5008461;28;20241;-64
2023/08/18 06:00:29;;;;;;;13.20;11.57;;;17.90;99.90;;;;;;5016938;28;20548;-64
2023/08/18 06:02:55;;;;;;;15.90;11.67;;;17.90;99.90;;;;;;5020798;28;20463;-64
2023/08/18 06:05:22;;;;;;;16.30;12.37;;;17.90;99.90;;;;;;5024725;28;20962;-63
2023/08/18 06:07:48;;;;;;;11.67;10.47;;;17.90;99.90;;;;;;5029171;28;20543;-63
2023/08/18 06:10:14;;;;;;;14.10;12.00;;;17.90;99.90;;;;;;5030488;28;20429;-65
2023/08/18 06:12:40;;;;;;;15.33;11.17;;;17.90;99.90;;;;;;5020335;28;21283;-64
2023/08/18 06:15:08;;;;;;;12.20;9.43;;;17.90;99.90;;;;;;5019036;28;20925;-64
2023/08/18 06:17:34;;;;;;;10.73;9.57;;;18.00;99.90;;;;;;5017133;28;20179;-64
2023/08/18 06:20:00;;;;;;;10.90;9.60;;;18.00;99.90;;;;;;5018247;28;20530;-64
2023/08/18 06:22:26;;;;;;;11.13;9.93;;;18.00;99.90;;;;;;5020721;28;20496;-65
2023/08/18 06:24:52;;;;;;;11.33;10.00;;;18.00;99.90;;;;;;5019820;28;20551;-63
2023/08/18 06:27:18;;;;;;;11.57;9.90;;;18.00;99.90;;;;;;5020428;28;20428;-63
2023/08/18 06:29:43;;;;;;;12.30;9.70;;;18.00;99.90;;;;;;5019018;28;20186;-63
2023/08/18 06:32:09;;;;;;;10.37;9.30;;;18.00;99.90;;;;;;5021285;28;20178;-65
2023/08/18 06:34:35;;;;;;;11.57;8.83;;;18.00;99.90;;;;;;5020965;28;20183;-64
2023/08/18 06:37:02;;;;;;;11.40;9.40;;;18.00;99.90;;;;;;5019571;28;20186;-65
2023/08/18 06:39:28;;;;;;;11.97;8.70;;;18.00;99.90;;;;;;5019918;28;20186;-63
2023/08/18 06:41:55;;;;;;;11.03;9.53;;;17.90;99.90;;;;;;5019825;28;20508;-64
2023/08/18 06:44:21;;;;;;;11.40;9.23;;;17.90;99.90;;;;;;5020282;28;20452;-65
2023/08/18 06:46:47;;;;;;;10.80;9.70;;;18.00;99.90;;;;;;5019444;28;20433;-64
2023/08/18 06:49:13;;;;;;;11.60;9.93;;;17.90;99.90;;;;;;5020123;28;20508;-65
2023/08/18 06:51:39;;;;;;;12.23;9.57;;;18.00;99.90;;;;;;5020709;28;20427;-64
2023/08/18 06:54:05;;;;;;;12.77;10.43;;;17.90;99.90;;;;;;5019449;28;20918;-64
2023/08/18 06:56:31;;;;;;;13.00;9.80;;;17.90;99.90;;;;;;5019757;28;20591;-63
2023/08/18 06:58:56;;;;;;;13.97;10.83;;;17.90;99.90;;;;;;5018210;28;20413;-64
2023/08/18 07:01:22;;;;;;;11.73;9.83;;;18.00;99.90;;;;;;5021149;28;20265;-65
2023/08/18 07:03:48;;;;;;;10.60;8.77;;;18.00;99.90;;;;;;5020357;28;20228;-64
2023/08/18 07:06:14;;;;;;;13.50;9.60;;;18.00;99.90;;;;;;5019706;28;21005;-65
2023/08/18 07:08:39;;;;;;;15.67;9.93;;;18.00;99.90;;;;;;5020281;28;20700;-65
2023/08/18 07:11:05;;;;;;;10.23;9.13;;;18.10;99.90;;;;;;5020605;28;20421;-63
2023/08/18 07:13:31;;;;;;;9.73;8.20;;;18.10;99.90;;;;;;5021620;28;20706;-63
2023/08/18 07:15:56;;;;;;;9.50;8.37;;;18.10;99.90;;;;;;5020725;28;20183;-65
2023/08/18 07:18:22;;;;;;;7.83;7.03;;;18.20;99.90;;;;;;5020133;28;20182;-65
2023/08/18 07:20:48;;;;;;;10.53;8.73;;;18.20;99.90;;;;;;5021159;28;20186;-64
2023/08/18 07:23:14;;;;;;;9.00;7.80;;;18.20;99.90;;;;;;5020375;28;20656;-66
2023/08/18 07:25:42;;;;;;;8.77;7.83;;;18.20;99.90;;;;;;5020544;28;20511;-64
2023/08/18 07:28:08;;;;;;;9.43;8.23;;;18.20;99.90;;;;;;5019184;28;20491;-63
2023/08/18 07:30:33;;;;;;;9.97;8.30;;;18.20;99.90;;;;;;5019772;28;20426;-65
2023/08/18 07:32:59;;;;;;;9.97;8.33;;;18.20;99.90;;;;;;5020658;28;20504;-64
2023/08/18 07:35:25;;;;;;;8.70;7.30;;;18.20;99.90;;;;;;5019547;28;20713;-64
2023/08/18 07:37:53;;;;;;;9.20;8.00;;;18.20;99.90;;;;;;5020143;28;20183;-64
2023/08/18 07:40:19;;;;;;;10.00;8.03;;;18.20;99.90;;;;;;5018938;28;20530;-63
2023/08/18 07:42:45;;;;;;;10.40;8.97;;;18.20;99.90;;;;;;5020219;28;20779;-63
2023/08/18 07:45:11;;;;;;;10.40;8.53;;;18.20;99.90;;;;;;5019537;28;20470;-63
2023/08/18 07:47:38;;;;;;;9.40;8.40;;;18.20;99.90;;;;;;5020690;28;20186;-63
2023/08/18 07:50:08;;;;;;;9.47;7.80;;;18.20;99.90;;;;;;5022011;28;20591;-63
2023/08/18 07:52:34;;;;;;;8.27;7.40;;;18.30;99.90;;;;;;5023963;28;20417;-63
2023/08/18 07:55:01;;;;;;;8.53;7.70;;;18.30;99.90;;;;;;5023660;28;20421;-63
2023/08/18 07:57:27;;;;;;;9.70;8.70;;;18.30;99.90;;;;;;5023333;28;20418;-63
2023/08/18 07:59:53;;;;;;;13.63;8.90;;;18.40;99.90;;;;;;5022792;28;20421;-63
2023/08/18 08:02:18;;;;;;;11.90;8.97;;;18.30;99.90;;;;;;5023608;28;20425;-64
2023/08/18 08:04:44;;;;;;;10.20;9.00;;;18.30;99.90;;;;;;5023524;28;20723;-63
2023/08/18 08:07:10;;;;;;;11.23;9.57;;;18.30;99.90;;;;;;5023190;28;20186;-63
2023/08/18 08:09:35;;;;;;;9.33;8.23;;;18.40;99.90;;;;;;5023644;28;20187;-64
2023/08/18 08:12:02;;;;;;;9.50;8.50;;;18.40;99.90;;;;;;5023878;28;20192;-63
2023/08/18 08:14:27;;;;;;;8.63;7.73;;;18.50;99.90;;;;;;5023578;28;20182;-62
2023/08/18 08:16:53;;;;;;;11.70;8.40;;;18.50;99.90;;;;;;5022837;28;20436;-64
2023/08/18 08:19:19;;;;;;;12.90;8.97;;;18.60;99.90;;;;;;5022292;28;20214;-64
2023/08/18 08:21:44;;;;;;;9.73;8.60;;;18.70;99.90;;;;;;5023711;28;20177;-63
2023/08/18 08:24:10;;;;;;;11.53;9.00;;;18.70;99.90;;;;;;5023382;28;20211;-63
2023/08/18 08:26:36;;;;;;;9.83;8.83;;;18.70;99.90;;;;;;5022795;28;20171;-63
2023/08/18 08:29:02;;;;;;;9.90;8.57;;;18.80;99.90;;;;;;5023318;28;20232;-63
2023/08/18 08:31:27;;;;;;;11.20;8.93;;;18.80;99.90;;;;;;5023048;28;20190;-63
2023/08/18 08:33:53;;;;;;;10.00;8.63;;;18.80;99.90;;;;;;5023581;28;20174;-63
2023/08/18 08:36:19;;;;;;;9.57;8.60;;;18.90;99.90;;;;;;5022559;28;20580;-63
2023/08/18 08:38:44;;;;;;;9.60;8.60;;;18.90;99.90;;;;;;5023240;28;20183;-64
2023/08/18 08:41:10;;;;;;;9.63;8.67;;;18.90;99.90;;;;;;5023070;28;20189;-63
2023/08/18 08:43:36;;;;;;;10.37;8.80;;;18.90;99.90;;;;;;5023341;28;20652;-64
2023/08/18 08:46:02;;;;;;;12.20;10.20;;;18.90;99.90;;;;;;5022717;28;20244;-63
2023/08/18 08:48:44;;;;;;;13.10;10.33;;;18.90;99.90;;;;;;5022580;28;20190;-64
2023/08/18 08:51:12;;;;;;;9.97;8.97;;;18.90;99.90;;;;;;5022989;28;20427;-63
2023/08/18 08:53:42;;;;;;;11.83;8.90;;;19.00;99.90;;;;;;5023092;28;20413;-63
2023/08/18 08:56:09;;;;;;;16.47;14.77;;;19.00;99.90;;;;;;5022409;28;20459;-63
2023/08/18 08:58:35;;;;;;;14.00;12.50;;;19.00;99.90;;;;;;5022129;28;21062;-63
2023/08/18 09:01:02;;;;;;;13.50;10.93;;;19.10;99.90;;;;;;5021924;28;20425;-63
2023/08/18 09:03:28;;;;;;;12.53;10.80;;;19.00;99.90;;;;;;5022229;28;20206;-64
2023/08/18 09:05:55;;;;;;;12.30;11.00;;;19.20;99.90;;;;;;5022147;28;20465;-63
2023/08/18 09:08:21;;;;;;;10.43;9.43;;;19.20;99.90;;;;;;5021671;28;20581;-63
2023/08/18 09:10:46;;;;;;;11.70;10.50;;;19.40;99.90;;;;;;5023187;28;20502;-63
2023/08/18 09:13:13;;;;;;;11.33;9.70;;;19.40;99.90;;;;;;5022756;28;20582;-62
2023/08/18 09:15:45;;;;;;;11.10;10.00;;;19.50;99.90;;;;;;5022563;28;20522;-64
2023/08/18 09:18:17;;;;;;;12.97;11.60;;;19.60;99.90;;;;;;5022313;28;20421;-63
2023/08/18 09:20:44;;;;;;;15.77;14.00;;;19.60;99.90;;;;;;5021000;28;20414;-63
2023/08/18 09:23:11;;;;;;;15.60;14.00;;;19.60;99.90;;;;;;5022706;28;20782;-63
2023/08/18 09:25:37;;;;;;;12.63;11.37;;;19.60;99.90;;;;;;5021603;28;20465;-64
2023/08/18 09:28:04;;;;;;;11.07;9.97;;;19.70;99.90;;;;;;5021831;28;21080;-63
2023/08/18 09:30:33;;;;;;;11.07;9.93;;;19.80;99.90;;;;;;5022232;28;21100;-63
2023/08/18 09:33:02;;;;;;;13.10;10.13;;;19.90;99.90;;;;;;5022388;28;20466;-63
2023/08/18 09:35:36;;;;;;;11.50;10.30;;;19.90;99.90;;;;;;5021345;28;20428;-64
2023/08/18 09:38:02;;;;;;;11.93;9.90;;;20.00;99.90;;;;;;5021942;28;20437;-63
2023/08/18 09:40:28;;;;;;;11.17;10.07;;;20.10;99.90;;;;;;5021976;28;20429;-64
2023/08/18 09:42:55;;;;;;;11.20;10.10;;;20.20;99.90;;;;;;5021433;28;20436;-64
2023/08/18 09:45:26;;;;;;;12.73;11.43;;;20.20;99.90;;;;;;5024205;28;20471;-63
2023/08/18 09:47:56;;;;;;;11.93;10.73;;;20.30;99.90;;;;;;5024188;28;20434;-63
2023/08/18 09:50:28;;;;;;;11.60;10.50;;;20.30;99.90;;;;;;5023530;28;20429;-63
2023/08/18 09:52:56;;;;;;;14.40;13.00;;;20.30;99.90;;;;;;5024510;28;20425;-63
2023/08/18 09:55:32;;;;;;;14.60;13.20;;;20.40;99.90;;;;;;5022818;28;20417;-63
2023/08/18 09:58:19;;;;;;;13.53;12.23;;;20.40;99.90;;;;;;5024400;28;20417;-62
2023/08/18 10:00:46;;;;;;;12.47;11.23;;;20.50;99.90;;;;;;5021555;28;20413;-63
2023/08/18 10:03:16;;;;;;;13.50;11.70;;;20.60;99.90;;;;;;5024614;28;20938;-63
2023/08/18 10:05:44;;;;;;;14.80;13.40;;;20.80;99.90;;;;;;5021961;28;20488;-64
2023/08/18 10:08:10;;;;;;;12.87;11.77;;;20.90;99.90;;;;;;5023580;28;20926;-63
2023/08/18 10:10:36;;;;;;;14.17;12.50;;;21.10;99.90;;;;;;5021891;28;20405;-63
2023/08/18 10:13:05;;;;;;;12.77;11.47;;;21.30;99.90;;;;;;5022949;28;20425;-63
2023/08/18 10:15:31;;;;;;;12.30;11.00;;;21.50;99.90;;;;;;5021979;28;20429;-64
2023/08/18 10:17:57;;;;;;;10.43;9.33;;;21.70;99.90;;;;;;5022737;28;20512;-63
2023/08/18 10:20:26;;;;;;;10.63;9.67;;;21.80;99.90;;;;;;5022664;28;20445;-64
2023/08/18 10:22:54;;;;;;;10.80;9.80;;;22.10;99.90;;;;;;5022201;28;20182;-63
2023/08/18 10:25:28;;;;;;;10.57;9.57;;;22.30;99.90;;;;;;5021031;28;20472;-64
2023/08/18 10:27:53;;;;;;;10.67;9.70;;;22.40;99.90;;;;;;5020975;28;20433;-63
2023/08/18 10:30:26;;;;;;;9.50;8.40;;;22.50;99.90;;;;;;5021750;28;20429;-63
2023/08/18 10:32:52;;;;;;;11.50;10.40;;;22.60;99.90;;;;;;5020634;28;20206;-64
2023/08/18 10:35:23;;;;;;;10.20;9.10;;;22.70;99.90;;;;;;5020447;28;21020;-63
2023/08/18 10:37:50;;;;;;;9.70;8.90;;;22.80;99.90;;;;;;5019752;28;20867;-64
2023/08/18 10:40:30;;;;;;;9.67;8.87;;;22.90;99.90;;;;;;5021127;28;20417;-63
2023/08/18 10:43:11;;;;;;;9.90;8.97;;;23.00;99.90;;;;;;5021005;28;20511;-63
2023/08/18 10:45:41;;;;;;;9.47;8.67;;;23.10;99.90;;;;;;5020236;28;20473;-63
2023/08/18 10:48:09;;;;;;;10.07;9.17;;;23.10;99.90;;;;;;5020487;28;20426;-64
2023/08/18 10:50:36;;;;;;;9.47;8.63;;;23.20;99.90;;;;;;5020981;28;20461;-64
2023/08/18 10:53:07;;;;;;;10.77;9.87;;;23.30;99.90;;;;;;5020713;28;20820;-63
2023/08/18 10:55:33;;;;;;;8.87;7.97;;;23.30;99.90;;;;;;5020754;28;20525;-65
2023/08/18 10:57:59;;;;;;;10.77;9.73;;;23.50;99.90;;;;;;5019860;28;20418;-63
2023/08/18 11:00:30;;;;;;;10.57;9.57;;;23.60;99.90;;;;;;5019366;28;20178;-64
2023/08/18 11:02:56;;;;;;;11.20;10.10;;;23.60;99.90;;;;;;5020276;28;20847;-63
2023/08/18 11:05:22;;;;;;;11.77;10.77;;;23.60;99.90;;;;;;5020329;28;20865;-63
2023/08/18 11:07:50;;;;;;;10.50;9.50;;;23.70;99.90;;;;;;5019481;28;21057;-63
2023/08/18 11:10:20;;;;;;;10.67;8.70;;;23.70;99.90;;;;;;5019509;28;21036;-64
2023/08/18 11:12:47;;;;;;;10.27;9.37;;;23.80;99.90;;;;;;5020193;28;20413;-63
2023/08/18 11:15:14;;;;;;;9.53;8.60;;;23.90;99.90;;;;;;5020825;28;20426;-63
2023/08/18 11:17:41;;;;;;;8.23;7.53;;;24.00;99.90;;;;;;5019950;28;20843;-63
2023/08/18 11:20:07;;;;;;;10.27;9.27;;;24.00;99.90;;;;;;5020636;28;20486;-64
2023/08/18 11:22:37;;;;;;;9.17;8.40;;;24.10;99.90;;;;;;5024857;28;20997;-64
2023/08/18 11:25:06;;;;;;;9.90;9.07;;;24.10;99.90;;;;;;5022593;28;20461;-63
2023/08/18 11:27:33;;;;;;;10.80;9.70;;;24.20;99.90;;;;;;5024199;28;20544;-64
2023/08/18 11:29:59;;;;;;;10.90;10.00;;;24.40;99.90;;;;;;5024158;28;20531;-64
2023/08/18 11:32:26;;;;;;;12.33;11.30;;;24.40;99.90;;;;;;5025135;28;20453;-64
2023/08/18 11:34:52;;;;;;;10.50;9.60;;;24.50;99.90;;;;;;5024096;28;20417;-63
2023/08/18 11:37:24;;;;;;;10.07;9.27;;;24.50;99.90;;;;;;5024483;28;20413;-64
2023/08/18 11:39:50;;;;;;;11.57;10.40;;;24.60;99.90;;;;;;5023740;28;20926;-63
2023/08/18 11:42:17;;;;;;;12.77;11.67;;;24.60;99.90;;;;;;5025103;28;20507;-63
2023/08/18 11:44:44;;;;;;;10.50;9.70;;;24.50;99.90;;;;;;5022619;28;20756;-64
2023/08/18 11:47:11;;;;;;;11.20;10.20;;;24.60;99.90;;;;;;5019238;28;20962;-63
2023/08/18 11:49:37;;;;;;;12.50;11.40;;;24.80;99.90;;;;;;5024129;28;20544;-64
2023/08/18 11:52:04;;;;;;;10.93;9.83;;;24.90;99.90;;;;;;5023364;28;20421;-62
2023/08/18 11:54:35;;;;;;;11.83;10.83;;;24.90;99.90;;;;;;5024104;28;20565;-63
2023/08/18 11:57:05;;;;;;;11.90;10.63;;;25.00;99.90;;;;;;5022267;28;20574;-63
2023/08/18 11:59:31;;;;;;;11.30;10.40;;;25.10;99.90;;;;;;5021881;28;20588;-63
2023/08/18 12:02:04;;;;;;;11.80;10.80;;;25.10;99.90;;;;;;5019719;28;21266;-63
2023/08/18 12:04:31;;;;;;;11.10;10.20;;;25.20;99.90;;;;;;5023762;28;20515;-64
2023/08/18 12:06:57;;;;;;;11.30;10.30;;;25.20;99.90;;;;;;5022165;28;20463;-63
2023/08/18 12:09:23;;;;;;;11.43;10.40;;;25.30;99.90;;;;;;5023656;28;20520;-64
2023/08/18 12:11:50;;;;;;;10.80;9.77;;;25.30;99.90;;;;;;5024016;28;20519;-64
2023/08/18 12:14:16;;;;;;;10.60;9.70;;;25.30;99.90;;;;;;5023087;28;20218;-63
2023/08/18 12:16:42;;;;;;;12.00;10.90;;;25.30;99.90;;;;;;5022436;28;20436;-64
2023/08/18 12:19:08;;;;;;;11.97;10.87;;;25.30;99.90;;;;;;5022619;28;20425;-64
2023/08/18 12:21:36;;;;;;;11.60;10.60;;;25.30;99.90;;;;;;5023425;28;20435;-63
2023/08/18 12:24:05;;;;;;;10.47;9.47;;;25.30;99.90;;;;;;5022425;28;20182;-64
2023/08/18 12:26:35;;;;;;;9.10;8.40;;;25.40;99.90;;;;;;5022425;28;20473;-63
2023/08/18 12:29:03;;;;;;;10.17;9.33;;;25.40;99.90;;;;;;5022557;28;20421;-63
2023/08/18 12:31:31;;;;;;;11.47;10.47;;;25.50;99.90;;;;;;5023305;28;20559;-63